Time;durP1;ratioP1;P1;durP2;ratioP2;P2;SDS_P1;SDS_P2;PMS_P1;PMS_P2;Temp;Humidity;BMP_temperature;BMP_pressure;BME280_temperature;BME280_humidity;BME280_pressure;Samples;Min_cycle;Max_cycle;Signal;HPM_P1;HPM_P2
2021/04/23 00:00:49;;;;;;;9.90;3.70;;;9.90;70.00;;;;;;5085460;28;20077;-67
2021/04/23 00:03:18;;;;;;;6.57;3.60;;;9.90;70.00;;;;;;5085617;28;20020;-68
2021/04/23 00:05:44;;;;;;;11.63;4.10;;;9.80;69.90;;;;;;5081950;28;20036;-69
2021/04/23 00:08:11;;;;;;;9.65;4.22;;;9.80;70.20;;;;;;5072553;28;20115;-68
2021/04/23 00:10:36;;;;;;;10.85;4.07;;;9.80;70.10;;;;;;5071981;28;20033;-68
2021/04/23 00:13:03;;;;;;;14.07;4.57;;;9.80;70.60;;;;;;5072890;28;20036;-69
2021/04/23 00:15:29;;;;;;;10.40;4.28;;;9.70;70.70;;;;;;5062338;28;20136;-68
2021/04/23 00:17:55;;;;;;;9.77;3.40;;;9.60;70.30;;;;;;5053110;28;20029;-68
2021/04/23 00:20:28;;;;;;;6.55;3.70;;;9.70;70.70;;;;;;5034745;28;20127;-68
2021/04/23 00:22:55;;;;;;;12.20;3.50;;;9.70;71.20;;;;;;5035203;28;20328;-68
2021/04/23 00:25:25;;;;;;;9.98;3.92;;;9.70;70.90;;;;;;5034822;28;20029;-69
2021/04/23 00:27:52;;;;;;;6.47;3.63;;;9.60;70.90;;;;;;5053399;28;20021;-68
2021/04/23 00:30:20;;;;;;;18.88;4.63;;;9.50;70.80;;;;;;5052444;28;20028;-68
2021/04/23 00:32:53;;;;;;;12.57;3.67;;;9.60;70.90;;;;;;5035135;28;20047;-68
2021/04/23 00:35:20;;;;;;;13.18;4.03;;;9.60;70.90;;;;;;5052532;28;20155;-69
2021/04/23 00:37:47;;;;;;;8.63;3.08;;;9.50;71.20;;;;;;5035110;28;20402;-68
2021/04/23 00:40:23;;;;;;;7.05;4.00;;;9.50;71.20;;;;;;5052456;28;20043;-68
2021/04/23 00:42:49;;;;;;;12.85;3.55;;;9.50;71.30;;;;;;5034992;28;20025;-67
2021/04/23 00:45:19;;;;;;;11.75;3.88;;;9.50;71.50;;;;;;5052396;28;20090;-68
2021/04/23 00:47:47;;;;;;;11.13;3.40;;;9.30;71.80;;;;;;5053089;28;20063;-68
2021/04/23 00:50:32;;;;;;;11.27;3.72;;;9.30;72.10;;;;;;5052160;28;20033;-67
2021/04/23 00:52:58;;;;;;;7.65;3.40;;;9.40;71.90;;;;;;5034813;28;20455;-67
2021/04/23 00:55:24;;;;;;;7.63;3.83;;;9.40;72.10;;;;;;5033998;28;20094;-67
2021/04/23 00:57:50;;;;;;;10.55;3.80;;;9.30;72.10;;;;;;5034461;28;20025;-69
2021/04/23 01:00:17;;;;;;;14.48;4.88;;;9.30;72.50;;;;;;5051794;28;20043;-68
2021/04/23 01:02:43;;;;;;;11.35;3.90;;;9.20;72.30;;;;;;5034423;28;20086;-68
2021/04/23 01:05:10;;;;;;;7.32;4.50;;;9.20;72.40;;;;;;5052498;28;20428;-69
2021/04/23 01:07:41;;;;;;;9.60;4.18;;;9.30;72.70;;;;;;5052071;28;20036;-69
2021/04/23 01:10:08;;;;;;;12.45;4.60;;;9.30;72.70;;;;;;5034473;28;20036;-69
2021/04/23 01:12:33;;;;;;;6.38;3.75;;;9.20;72.90;;;;;;5050837;28;20025;-69
2021/04/23 01:14:59;;;;;;;8.57;4.05;;;9.10;73.30;;;;;;5051902;28;20045;-69
2021/04/23 01:17:25;;;;;;;12.88;3.95;;;9.10;73.40;;;;;;5033610;28;20122;-67
2021/04/23 01:19:50;;;;;;;10.43;3.60;;;9.00;73.40;;;;;;5052180;28;20187;-68
2021/04/23 01:22:16;;;;;;;9.43;3.78;;;9.10;73.50;;;;;;5033536;28;20029;-68
2021/04/23 01:24:41;;;;;;;10.07;3.97;;;9.10;73.70;;;;;;5051773;28;20105;-69
2021/04/23 01:27:07;;;;;;;8.98;3.22;;;9.00;73.90;;;;;;5051750;28;20021;-68
2021/04/23 01:29:33;;;;;;;10.30;3.92;;;9.10;73.80;;;;;;5033589;28;20036;-68
2021/04/23 01:31:58;;;;;;;9.02;3.47;;;9.10;73.70;;;;;;5052133;28;20326;-68
2021/04/23 01:34:36;;;;;;;9.23;4.32;;;9.10;73.60;;;;;;5051153;28;20416;-70
2021/04/23 01:37:03;;;;;;;8.43;3.65;;;9.10;73.40;;;;;;5066460;28;20060;-70
2021/04/23 01:39:31;;;;;;;10.80;3.50;;;9.00;73.40;;;;;;5052508;28;20531;-68
2021/04/23 01:41:58;;;;;;;7.85;4.70;;;9.00;73.40;;;;;;5053529;28;20047;-68
2021/04/23 01:44:26;;;;;;;12.75;3.72;;;9.00;73.80;;;;;;5071032;28;20033;-67
2021/04/23 01:46:52;;;;;;;10.05;4.50;;;8.90;73.70;;;;;;5037127;28;20111;-68
2021/04/23 01:49:20;;;;;;;12.68;5.25;;;8.80;74.10;;;;;;5070794;28;20107;-69
2021/04/23 01:51:58;;;;;;;9.77;4.15;;;8.70;74.70;;;;;;5071511;28;20115;-69
2021/04/23 01:54:25;;;;;;;7.95;3.40;;;8.80;75.00;;;;;;5071249;28;20024;-69
2021/04/23 01:56:52;;;;;;;11.05;3.85;;;8.60;75.20;;;;;;5071327;28;20028;-67
2021/04/23 01:59:18;;;;;;;11.55;3.95;;;8.60;75.20;;;;;;5052750;28;20454;-67
2021/04/23 02:01:44;;;;;;;8.48;3.97;;;8.60;75.60;;;;;;5053110;28;20032;-68
2021/04/23 02:04:13;;;;;;;11.00;3.97;;;8.60;75.30;;;;;;5071150;28;20016;-67
2021/04/23 02:06:40;;;;;;;14.40;4.57;;;8.50;75.40;;;;;;5052664;28;20023;-69
2021/04/23 02:09:08;;;;;;;12.23;3.70;;;8.60;75.40;;;;;;5071015;28;20032;-68
2021/04/23 02:11:35;;;;;;;7.72;4.45;;;8.50;75.60;;;;;;5052714;28;20036;-69
2021/04/23 02:14:01;;;;;;;10.75;3.70;;;8.30;75.90;;;;;;5070890;28;20036;-67
2021/04/23 02:16:28;;;;;;;8.57;4.13;;;8.40;75.90;;;;;;5089373;28;20049;-68
2021/04/23 02:18:54;;;;;;;9.43;4.13;;;8.40;76.10;;;;;;5091461;28;20051;-69
2021/04/23 02:21:20;;;;;;;9.60;4.63;;;8.40;75.70;;;;;;5072396;28;20457;-67
2021/04/23 02:23:47;;;;;;;12.48;4.05;;;8.40;75.70;;;;;;5091221;28;20020;-68
2021/04/23 02:26:14;;;;;;;15.35;4.00;;;8.40;76.20;;;;;;5072735;28;20103;-67
2021/04/23 02:28:41;;;;;;;18.73;4.55;;;8.40;75.90;;;;;;5072504;28;20028;-69
2021/04/23 02:31:16;;;;;;;10.45;4.53;;;8.40;76.00;;;;;;5091352;28;20120;-68
2021/04/23 02:33:44;;;;;;;12.20;4.55;;;8.50;76.00;;;;;;5072964;28;20017;-68
2021/04/23 02:36:10;;;;;;;14.70;4.38;;;8.40;76.00;;;;;;5072493;28;20081;-68
2021/04/23 02:38:37;;;;;;;8.05;3.58;;;8.30;76.10;;;;;;5072264;28;20055;-68
2021/04/23 02:41:04;;;;;;;9.18;3.95;;;8.40;75.90;;;;;;5072756;28;20024;-68
2021/04/23 02:43:37;;;;;;;9.50;3.38;;;8.30;75.70;;;;;;5090556;28;20335;-69
2021/04/23 02:46:03;;;;;;;11.32;4.03;;;8.30;76.20;;;;;;5091109;28;20020;-69
2021/04/23 02:48:31;;;;;;;9.40;3.78;;;8.30;76.60;;;;;;5072367;28;20059;-69
2021/04/23 02:51:03;;;;;;;13.88;4.53;;;8.30;76.80;;;;;;5091106;28;20134;-68
2021/04/23 02:53:29;;;;;;;7.63;4.03;;;8.30;77.20;;;;;;5090176;28;20020;-68
2021/04/23 02:55:55;;;;;;;12.90;3.50;;;8.30;77.10;;;;;;5072862;28;20024;-68
2021/04/23 02:58:21;;;;;;;6.13;3.72;;;8.20;77.30;;;;;;5090024;28;20103;-71
2021/04/23 03:00:50;;;;;;;15.77;5.28;;;8.30;77.00;;;;;;5090682;28;20039;-68
2021/04/23 03:03:16;;;;;;;7.68;4.53;;;8.30;77.60;;;;;;5090844;28;20412;-68
2021/04/23 03:05:45;;;;;;;10.45;4.32;;;8.20;77.70;;;;;;5071608;28;20103;-68
2021/04/23 03:08:11;;;;;;;10.70;4.20;;;8.20;77.90;;;;;;5072542;28;20027;-68
2021/04/23 03:10:43;;;;;;;8.57;4.20;;;8.10;78.10;;;;;;5090343;28;20108;-68
2021/04/23 03:13:13;;;;;;;;;;;8.10;78.60;;;;;;5091612;28;20046;-72
2021/04/23 03:15:39;;;;;;;10.90;4.30;;;8.10;78.70;;;;;;5079975;28;20184;-68
2021/04/23 03:18:05;;;;;;;16.20;4.70;;;8.10;78.70;;;;;;5090486;28;20111;-67
2021/04/23 03:20:31;;;;;;;10.73;4.18;;;8.10;78.50;;;;;;5090509;28;20032;-69
2021/04/23 03:22:57;;;;;;;12.23;5.43;;;8.20;78.30;;;;;;5089267;28;20020;-68
2021/04/23 03:25:28;;;;;;;9.02;4.05;;;8.20;78.30;;;;;;5088908;28;20016;-68
2021/04/23 03:27:54;;;;;;;12.70;4.88;;;8.20;78.20;;;;;;5089297;28;20031;-68
2021/04/23 03:30:24;;;;;;;15.80;4.05;;;8.20;78.10;;;;;;5090223;28;20024;-70
2021/04/23 03:32:49;;;;;;;9.98;3.58;;;8.10;78.50;;;;;;5090783;28;20024;-68
2021/04/23 03:35:16;;;;;;;12.25;5.45;;;8.10;78.30;;;;;;5091253;28;20030;-68
2021/04/23 03:37:43;;;;;;;8.95;3.55;;;8.10;79.30;;;;;;5090741;28;20028;-68
2021/04/23 03:40:10;;;;;;;13.07;4.45;;;;;;;;;;5093806;28;20093;-68
2021/04/23 03:42:37;;;;;;;11.55;4.03;;;8.00;78.60;;;;;;5092402;28;20031;-69
2021/04/23 03:45:08;;;;;;;6.38;3.78;;;8.00;79.20;;;;;;5093820;28;20055;-68
2021/04/23 03:47:33;;;;;;;10.43;4.13;;;8.00;79.40;;;;;;5092460;28;20107;-69
2021/04/23 03:49:59;;;;;;;10.60;3.70;;;8.00;79.20;;;;;;5092724;28;20471;-68
2021/04/23 03:52:25;;;;;;;7.97;3.55;;;7.90;79.50;;;;;;5092244;28;20113;-68
2021/04/23 03:54:51;;;;;;;8.65;3.72;;;7.90;79.90;;;;;;5093953;28;20024;-68
2021/04/23 03:57:16;;;;;;;12.20;4.70;;;7.80;80.00;;;;;;5094211;28;20099;-69
2021/04/23 03:59:42;;;;;;;11.88;3.95;;;7.80;80.40;;;;;;5091888;28;20079;-68
2021/04/23 04:02:08;;;;;;;13.40;4.28;;;7.80;80.30;;;;;;5092737;28;20097;-68
2021/04/23 04:04:33;;;;;;;8.25;3.67;;;7.80;80.70;;;;;;5093819;28;20055;-69
2021/04/23 04:06:59;;;;;;;9.75;4.15;;;7.70;80.80;;;;;;5092694;28;20024;-68
2021/04/23 04:09:25;;;;;;;14.10;4.78;;;7.70;80.80;;;;;;5091927;28;20130;-69
2021/04/23 04:11:51;;;;;;;9.48;3.90;;;7.80;81.10;;;;;;5092382;28;20107;-68
2021/04/23 04:14:16;;;;;;;11.43;4.28;;;7.60;80.90;;;;;;5091558;28;20039;-67
2021/04/23 04:16:42;;;;;;;9.77;4.97;;;7.60;81.60;;;;;;5072942;28;20408;-69
2021/04/23 04:19:08;;;;;;;10.73;4.38;;;7.60;81.60;;;;;;5055516;28;20065;-68
2021/04/23 04:21:34;;;;;;;8.40;3.72;;;7.60;81.80;;;;;;5055005;28;20075;-69
2021/04/23 04:23:59;;;;;;;9.05;3.78;;;7.70;81.50;;;;;;5055506;28;20036;-68
2021/04/23 04:26:25;;;;;;;10.57;4.80;;;7.80;81.40;;;;;;5072729;28;20113;-69
2021/04/23 04:28:51;;;;;;;10.70;4.82;;;7.80;81.30;;;;;;5073350;28;20385;-69
2021/04/23 04:31:17;;;;;;;8.48;3.60;;;7.70;81.60;;;;;;5073177;28;20032;-69
2021/04/23 04:33:42;;;;;;;18.02;4.78;;;7.60;81.90;;;;;;5072480;28;20393;-68
2021/04/23 04:36:08;;;;;;;13.57;4.22;;;7.70;81.60;;;;;;5055159;28;20039;-68
2021/04/23 04:38:34;;;;;;;15.10;3.97;;;7.80;81.60;;;;;;5072637;28;20032;-68
2021/04/23 04:41:00;;;;;;;13.32;4.32;;;7.90;81.20;;;;;;5055110;28;20115;-68
2021/04/23 04:43:26;;;;;;;11.48;4.68;;;8.00;81.20;;;;;;5072669;28;20086;-68
2021/04/23 04:45:52;;;;;;;12.52;4.15;;;8.00;81.20;;;;;;5070739;28;20108;-68
2021/04/23 04:48:18;;;;;;;9.18;5.45;;;7.90;81.60;;;;;;5069698;28;20039;-67
2021/04/23 04:50:48;;;;;;;14.07;4.95;;;7.80;82.00;;;;;;5053635;28;20423;-68
2021/04/23 04:53:14;;;;;;;49.10;8.55;;;7.80;82.20;;;;;;5053718;28;20067;-71
2021/04/23 04:55:43;;;;;;;16.73;4.97;;;7.90;82.10;;;;;;5049890;28;20307;-70
2021/04/23 04:58:12;;;;;;;15.60;5.05;;;8.00;81.60;;;;;;5070389;28;20454;-72
2021/04/23 05:00:39;;;;;;;11.25;4.18;;;8.10;81.30;;;;;;5070077;28;20496;-72
2021/04/23 05:03:08;;;;;;;9.52;4.25;;;8.00;81.60;;;;;;5064665;28;20070;-72
2021/04/23 05:05:34;;;;;;;11.70;4.68;;;7.90;81.70;;;;;;5049983;28;20344;-71
2021/04/23 05:08:00;;;;;;;10.80;5.63;;;8.00;81.50;;;;;;5050789;28;20052;-71
2021/04/23 05:10:27;;;;;;;14.13;5.10;;;8.00;81.60;;;;;;5050516;28;20052;-71
2021/04/23 05:12:53;;;;;;;10.10;3.67;;;8.00;81.60;;;;;;5033889;28;20063;-71
2021/04/23 05:15:19;;;;;;;14.05;4.88;;;8.00;81.60;;;;;;5047014;28;20056;-71
2021/04/23 05:17:46;;;;;;;12.60;4.72;;;8.00;81.80;;;;;;5069768;28;20097;-69
2021/04/23 05:20:14;;;;;;;10.27;4.50;;;7.90;82.00;;;;;;5069903;28;20075;-70
2021/04/23 05:22:40;;;;;;;16.98;4.72;;;8.00;81.70;;;;;;5068872;28;20028;-69
2021/04/23 05:25:08;;;;;;;14.45;3.35;;;8.10;81.40;;;;;;5069365;28;20043;-69
2021/04/23 05:27:34;;;;;;;10.27;4.45;;;8.30;80.60;;;;;;5069912;28;20477;-61
2021/04/23 05:29:59;;;;;;;16.60;4.13;;;8.30;81.60;;;;;;5070701;28;20128;-61
2021/04/23 05:32:25;;;;;;;11.98;4.47;;;8.80;81.50;;;;;;5069054;28;20186;-72
2021/04/23 05:34:51;;;;;;;15.77;4.63;;;9.00;79.60;;;;;;5069429;28;20029;-61
2021/04/23 05:37:17;;;;;;;12.25;4.25;;;9.00;79.30;;;;;;5068885;28;20024;-60
2021/04/23 05:39:44;;;;;;;11.95;3.88;;;9.00;78.70;;;;;;5076393;28;20121;-66
2021/04/23 05:42:14;;;;;;;9.93;3.67;;;9.10;78.10;;;;;;5088921;28;20032;-61
2021/04/23 05:44:40;;;;;;;11.15;3.85;;;9.20;78.00;;;;;;5089481;28;20044;-62
2021/04/23 05:47:06;;;;;;;12.13;4.40;;;9.40;77.10;;;;;;5078739;28;20119;-61
2021/04/23 05:49:33;;;;;;;10.13;3.92;;;9.30;77.70;;;;;;5069436;28;20037;-61
2021/04/23 05:51:59;;;;;;;8.93;3.50;;;9.20;77.90;;;;;;5068468;28;20028;-59
2021/04/23 05:54:26;;;;;;;15.13;5.43;;;9.30;77.90;;;;;;5069048;28;20029;-73
2021/04/23 05:56:51;;;;;;;10.43;5.03;;;9.40;77.40;;;;;;5084772;28;20046;-63
2021/04/23 05:59:17;;;;;;;10.55;4.38;;;9.50;77.00;;;;;;5086213;28;20453;-62
2021/04/23 06:01:44;;;;;;;11.88;4.47;;;9.50;77.30;;;;;;5075976;28;20177;-62
2021/04/23 06:04:10;;;;;;;11.43;4.90;;;9.60;76.80;;;;;;5069209;28;20035;-69
2021/04/23 06:06:35;;;;;;;9.95;3.97;;;9.50;77.00;;;;;;5071584;28;20436;-70
2021/04/23 06:09:01;;;;;;;8.05;4.28;;;9.30;77.60;;;;;;5084071;28;20047;-71
2021/04/23 06:11:27;;;;;;;10.38;4.35;;;9.30;77.60;;;;;;5067563;28;20028;-70
2021/04/23 06:13:53;;;;;;;11.25;4.47;;;9.20;77.70;;;;;;5069280;28;20367;-72
2021/04/23 06:16:18;;;;;;;10.65;4.95;;;9.20;77.80;;;;;;5067320;28;20117;-70
2021/04/23 06:18:44;;;;;;;14.80;4.78;;;9.40;77.50;;;;;;5067308;28;20128;-69
2021/04/23 06:21:10;;;;;;;9.85;4.45;;;9.10;78.50;;;;;;5070219;28;20523;-70
2021/04/23 06:23:37;;;;;;;11.50;5.50;;;9.10;78.50;;;;;;5087501;28;20032;-68
2021/04/23 06:26:04;;;;;;;10.77;4.47;;;9.30;78.20;;;;;;5088300;28;20046;-70
2021/04/23 06:28:30;;;;;;;12.10;4.55;;;9.30;78.50;;;;;;5087981;28;20028;-69
2021/04/23 06:30:57;;;;;;;10.68;5.38;;;9.40;78.30;;;;;;5089367;28;20484;-69
2021/04/23 06:33:27;;;;;;;12.98;5.03;;;9.20;79.10;;;;;;5088378;28;20020;-69
2021/04/23 06:35:53;;;;;;;12.43;4.93;;;9.50;78.40;;;;;;5089328;28;20122;-70
2021/04/23 06:38:19;;;;;;;11.32;4.72;;;9.50;78.10;;;;;;5087754;28;20047;-69
2021/04/23 06:40:45;;;;;;;12.35;4.93;;;9.70;77.80;;;;;;5087145;28;20036;-70
2021/04/23 06:43:11;;;;;;;11.80;5.32;;;9.70;78.20;;;;;;5089096;28;20079;-69
2021/04/23 06:45:37;;;;;;;11.45;5.22;;;10.00;77.60;;;;;;5084598;28;20374;-69
2021/04/23 06:48:03;;;;;;;10.88;4.43;;;10.10;76.90;;;;;;5069023;28;20362;-69
2021/04/23 06:50:29;;;;;;;20.70;6.07;;;10.30;76.60;;;;;;5069062;28;20032;-70
2021/04/23 06:52:55;;;;;;;14.18;4.43;;;10.20;76.50;;;;;;5067800;28;20141;-71
2021/04/23 06:55:22;;;;;;;8.60;4.65;;;10.30;76.50;;;;;;5067359;28;20028;-70
2021/04/23 06:57:49;;;;;;;10.50;4.80;;;10.00;77.00;;;;;;5066648;28;20082;-68
2021/04/23 07:00:18;;;;;;;12.18;5.03;;;10.30;76.90;;;;;;5067022;28;20058;-72
2021/04/23 07:02:44;;;;;;;10.32;4.72;;;10.40;76.40;;;;;;5074592;28;20024;-70
2021/04/23 07:05:11;;;;;;;8.73;4.80;;;10.60;75.80;;;;;;5086580;28;20138;-69
2021/04/23 07:07:37;;;;;;;14.85;5.40;;;10.70;76.20;;;;;;5069847;28;20035;-70
2021/04/23 07:10:05;;;;;;;16.73;6.65;;;11.00;75.30;;;;;;5084639;28;20030;-70
2021/04/23 07:12:31;;;;;;;14.38;4.82;;;10.90;75.00;;;;;;5085976;28;20028;-66
2021/04/23 07:14:57;;;;;;;13.15;6.13;;;10.90;75.10;;;;;;5071289;28;20101;-70
2021/04/23 07:17:22;;;;;;;10.52;4.40;;;11.30;75.00;;;;;;5072135;28;20021;-70
2021/04/23 07:19:48;;;;;;;12.55;5.63;;;11.40;74.60;;;;;;5070705;28;20076;-70
2021/04/23 07:22:17;;;;;;;13.30;5.00;;;11.60;72.80;;;;;;5071040;28;20024;-69
2021/04/23 07:24:44;;;;;;;14.13;5.18;;;11.70;72.10;;;;;;5070085;28;20016;-70
2021/04/23 07:27:11;;;;;;;9.52;5.60;;;11.80;71.80;;;;;;5071083;28;20017;-69
2021/04/23 07:29:37;;;;;;;10.60;4.35;;;12.00;71.60;;;;;;5069921;28;20396;-70
2021/04/23 07:32:03;;;;;;;13.07;4.85;;;12.00;71.20;;;;;;5073157;28;20641;-70
2021/04/23 07:34:29;;;;;;;10.32;4.78;;;12.20;70.20;;;;;;5070646;28;20110;-69
2021/04/23 07:36:55;;;;;;;9.40;5.22;;;12.20;70.20;;;;;;5072268;28;20393;-69
2021/04/23 07:39:25;;;;;;;10.95;5.53;;;12.50;70.00;;;;;;5070715;28;20024;-68
2021/04/23 07:41:53;;;;;;;12.13;4.53;;;12.50;69.40;;;;;;5071223;28;20028;-70
2021/04/23 07:44:20;;;;;;;12.40;4.38;;;13.00;68.90;;;;;;5072107;28;20529;-70
2021/04/23 07:46:46;;;;;;;8.57;4.25;;;13.20;67.30;;;;;;5070278;28;20460;-70
2021/04/23 07:49:11;;;;;;;10.27;4.65;;;13.40;66.20;;;;;;5071005;28;20028;-70
2021/04/23 07:51:37;;;;;;;13.73;5.10;;;13.70;65.60;;;;;;5075727;28;20053;-69
2021/04/23 07:54:03;;;;;;;9.95;4.50;;;13.90;65.30;;;;;;5110461;28;20023;-68
2021/04/23 07:56:29;;;;;;;14.43;5.35;;;14.10;65.30;;;;;;5112523;28;20024;-71
2021/04/23 07:58:55;;;;;;;8.35;4.30;;;14.20;63.70;;;;;;5111353;28;20024;-70
2021/04/23 08:01:20;;;;;;;13.00;4.68;;;14.00;64.30;;;;;;5111229;28;20038;-70
2021/04/23 08:03:46;;;;;;;13.95;4.93;;;14.20;63.40;;;;;;5105163;28;20213;-71
2021/04/23 08:06:11;;;;;;;34.28;4.88;;;14.20;62.90;;;;;;5093451;28;20020;-69
2021/04/23 08:08:37;;;;;;;12.75;5.13;;;14.20;63.70;;;;;;5090493;28;20093;-69
2021/04/23 08:11:03;;;;;;;14.07;5.13;;;13.80;64.00;;;;;;5090294;28;20016;-69
2021/04/23 08:13:28;;;;;;;12.30;4.93;;;14.20;64.40;;;;;;5086976;28;20107;-72
2021/04/23 08:15:54;;;;;;;9.38;4.53;;;14.40;63.70;;;;;;5078119;28;20192;-70
2021/04/23 08:18:20;;;;;;;10.68;4.18;;;15.00;72.20;;;;;;5083814;28;20032;-69
2021/04/23 08:20:47;;;;;;;4.25;2.05;;;15.70;68.60;;;;;;5077260;28;20048;-65
2021/04/23 08:23:13;;;;;;;8.40;2.80;;;16.10;71.10;;;;;;5079595;28;20035;-63
2021/04/23 08:25:39;;;;;;;8.77;3.88;;;17.20;70.00;;;;;;5077951;28;20024;-60
2021/04/23 08:28:04;;;;;;;8.57;3.28;;;17.30;61.40;;;;;;5079871;28;20394;-61
2021/04/23 08:30:30;;;;;;;9.90;4.32;;;17.20;59.60;;;;;;5078057;28;20343;-64
2021/04/23 08:32:58;;;;;;;10.05;4.47;;;17.10;56.20;;;;;;5080735;28;20125;-61
2021/04/23 08:35:24;;;;;;;9.65;4.55;;;16.60;58.70;;;;;;5078179;28;20358;-62
2021/04/23 08:37:51;;;;;;;10.80;4.07;;;16.60;58.90;;;;;;5079810;28;20346;-61
2021/04/23 08:40:19;;;;;;;9.00;3.78;;;16.70;58.80;;;;;;5073623;28;20487;-63
2021/04/23 08:42:46;;;;;;;8.52;4.05;;;16.70;57.90;;;;;;5078014;28;20039;-66
2021/04/23 08:45:17;;;;;;;10.27;4.32;;;16.90;59.10;;;;;;5078982;28;20456;-61
2021/04/23 08:47:44;;;;;;;8.77;3.67;;;17.40;57.30;;;;;;5070117;28;20482;-60
2021/04/23 08:50:11;;;;;;;11.38;4.13;;;16.90;57.40;;;;;;5068630;28;20037;-63
2021/04/23 08:52:40;;;;;;;9.52;3.45;;;17.30;56.90;;;;;;5069244;28;20396;-61
2021/04/23 08:55:06;;;;;;;9.05;4.05;;;17.70;58.20;;;;;;5092297;28;20086;-63
2021/04/23 08:57:32;;;;;;;9.20;4.53;;;17.80;56.80;;;;;;5108429;28;20618;-61
2021/04/23 08:59:58;;;;;;;10.18;4.57;;;18.10;55.60;;;;;;5110001;28;20038;-71
2021/04/23 09:02:23;;;;;;;11.18;5.20;;;17.90;54.80;;;;;;5079639;28;20110;-71
2021/04/23 09:04:49;;;;;;;9.07;3.97;;;18.10;55.00;;;;;;5076458;28;20020;-70
2021/04/23 09:07:15;;;;;;;12.43;5.72;;;18.20;53.80;;;;;;5076678;28;20036;-72
2021/04/23 09:09:42;;;;;;;7.97;4.30;;;18.30;53.80;;;;;;5077649;28;20035;-72
2021/04/23 09:12:35;;;;;;;9.70;3.90;;;18.30;54.70;;;;;;5075361;28;20035;-73
2021/04/23 09:15:02;;;;;;;13.43;4.18;;;18.40;54.80;;;;;;5072181;28;20056;-70
2021/04/23 09:17:30;;;;;;;8.65;4.30;;;18.50;53.80;;;;;;5041184;28;20510;-73
2021/04/23 09:19:57;;;;;;;8.23;3.95;;;18.10;53.10;;;;;;5056616;28;20024;-70
2021/04/23 09:22:29;;;;;;;9.35;5.28;;;18.00;54.10;;;;;;5052226;28;20058;-71
2021/04/23 09:24:57;;;;;;;7.82;4.38;;;18.10;52.70;;;;;;5048288;28;20033;-69
2021/04/23 09:27:26;;;;;;;11.18;5.70;;;18.20;52.70;;;;;;5053192;28;20024;-72
2021/04/23 09:29:56;;;;;;;30.98;6.60;;;17.90;53.70;;;;;;5030377;28;20040;-66
2021/04/23 09:32:27;;;;;;;10.80;4.97;;;18.30;61.70;;;;;;5049250;28;20021;-67
2021/04/23 09:35:04;;;;;;;17.55;5.63;;;18.00;55.80;;;;;;5049434;28;20035;-69
2021/04/23 09:37:42;;;;;;;15.27;5.00;;;18.40;58.40;;;;;;5041358;28;20457;-72
2021/04/23 09:40:11;;;;;;;8.02;4.38;;;18.90;77.00;;;;;;5035443;28;20067;-68
2021/04/23 09:42:56;;;;;;;8.55;4.15;;;19.20;52.90;;;;;;5063409;28;20036;-70
2021/04/23 09:45:28;;;;;;;10.38;4.18;;;19.00;53.30;;;;;;5030569;28;20083;-71
2021/04/23 09:47:54;;;;;;;17.60;5.65;;;19.10;58.70;;;;;;5030645;28;20029;-70
2021/04/23 09:50:21;;;;;;;10.27;3.45;;;19.40;61.90;;;;;;5048677;28;20040;-71
2021/04/23 09:52:52;;;;;;;10.90;5.20;;;19.80;57.40;;;;;;5035504;28;20513;-69
2021/04/23 09:55:27;;;;;;;8.80;4.35;;;20.00;55.10;;;;;;5068598;28;20078;-69
2021/04/23 09:57:55;;;;;;;11.07;4.53;;;20.20;52.40;;;;;;5069022;28;20112;-67
2021/04/23 10:00:25;;;;;;;9.30;4.60;;;20.40;53.90;;;;;;5050614;28;20120;-68
2021/04/23 10:02:56;;;;;;;11.23;5.18;;;20.10;52.60;;;;;;5060490;28;20025;-71
2021/04/23 10:05:30;;;;;;;9.73;5.45;;;20.30;52.00;;;;;;5049421;28;20410;-70
2021/04/23 10:07:56;;;;;;;13.02;5.10;;;20.40;51.60;;;;;;5068332;28;20493;-68
2021/04/23 10:10:22;;;;;;;11.27;4.63;;;20.40;52.20;;;;;;5050522;28;20028;-69
2021/04/23 10:12:56;;;;;;;12.43;7.30;;;20.40;51.30;;;;;;5067827;28;20021;-68
2021/04/23 10:15:44;;;;;;;9.52;5.38;;;20.70;50.20;;;;;;5068121;28;20094;-68
2021/04/23 10:18:14;;;;;;;7.63;4.10;;;21.00;53.90;;;;;;5047681;28;20109;-69
2021/04/23 10:20:45;;;;;;;9.63;5.45;;;21.00;52.00;;;;;;5048145;28;20521;-68
2021/04/23 10:23:14;;;;;;;4.63;2.97;;;20.70;49.40;;;;;;5030810;28;20033;-68
2021/04/23 10:25:40;;;;;;;10.95;6.25;;;20.90;54.80;;;;;;5047841;28;20147;-69
2021/04/23 10:28:09;;;;;;;8.20;4.47;;;21.00;49.50;;;;;;5030349;28;20064;-68
2021/04/23 10:30:44;;;;;;;9.93;5.47;;;21.20;53.10;;;;;;5029459;28;20057;-68
2021/04/23 10:33:32;;;;;;;13.40;4.60;;;21.50;50.00;;;;;;5047951;28;20128;-68
2021/04/23 10:35:59;;;;;;;8.63;4.43;;;21.60;50.80;;;;;;5047709;28;20128;-69
2021/04/23 10:38:30;;;;;;;5.53;3.45;;;22.00;48.30;;;;;;5030327;28;20128;-70
2021/04/23 10:41:05;;;;;;;12.50;6.05;;;21.70;48.00;;;;;;5048165;28;20034;-70
2021/04/23 10:43:36;;;;;;;18.42;6.25;;;21.70;48.00;;;;;;5047862;28;20029;-69
2021/04/23 10:46:12;;;;;;;10.05;4.47;;;21.70;48.90;;;;;;5029840;28;20025;-68
2021/04/23 10:48:41;;;;;;;9.23;4.22;;;22.00;47.40;;;;;;5054225;28;20084;-69
2021/04/23 10:51:10;;;;;;;15.73;6.88;;;22.20;49.10;;;;;;5067487;28;20178;-69
2021/04/23 10:53:44;;;;;;;10.75;4.00;;;22.10;46.90;;;;;;5054827;28;20037;-68
2021/04/23 10:56:47;;;;;;;15.77;5.95;;;22.20;46.40;;;;;;5029082;28;20032;-69
2021/04/23 10:59:34;;;;;;;15.32;5.38;;;22.30;46.20;;;;;;5015637;28;20186;-72
2021/04/23 11:02:18;;;;;;;8.60;4.18;;;22.70;46.20;;;;;;5066449;28;20040;-69
2021/04/23 11:05:01;;;;;;;8.88;4.28;;;22.80;48.30;;;;;;5065943;28;20028;-71
2021/04/23 11:07:28;;;;;;;9.32;6.32;;;22.80;44.30;;;;;;5066202;28;20033;-72
2021/04/23 11:10:02;;;;;;;10.68;5.65;;;22.50;44.60;;;;;;5065521;28;20534;-71
2021/04/23 11:12:28;;;;;;;8.85;5.35;;;22.60;44.60;;;;;;5048158;28;20016;-71
2021/04/23 11:15:16;;;;;;;9.07;4.40;;;22.40;47.10;;;;;;5054727;28;20052;-71
2021/04/23 11:17:42;;;;;;;8.13;3.70;;;22.60;44.80;;;;;;5084532;28;20071;-71
2021/04/23 11:20:29;;;;;;;9.25;5.05;;;22.70;46.90;;;;;;5077201;28;20063;-71
2021/04/23 11:22:59;;;;;;;8.48;4.47;;;23.00;44.80;;;;;;5103609;28;20035;-70
2021/04/23 11:25:26;;;;;;;12.50;5.53;;;22.70;43.50;;;;;;5107284;28;20030;-71
2021/04/23 11:28:01;;;;;;;10.95;5.80;;;22.60;44.40;;;;;;5104846;28;20594;-71
2021/04/23 11:30:29;;;;;;;9.15;6.97;;;22.70;44.30;;;;;;5105710;28;20473;-71
2021/04/23 11:32:56;;;;;;;9.57;4.20;;;23.10;43.70;;;;;;5093906;28;20024;-71
2021/04/23 11:35:25;;;;;;;6.45;4.32;;;23.00;43.60;;;;;;5085038;28;20032;-70
2021/04/23 11:37:53;;;;;;;6.13;3.92;;;23.10;43.80;;;;;;5084999;28;20114;-70
2021/04/23 11:40:25;;;;;;;9.32;4.82;;;23.00;45.20;;;;;;5086163;28;20067;-70
2021/04/23 11:42:53;;;;;;;9.55;5.93;;;22.30;42.60;;;;;;5086248;28;20214;-71
2021/04/23 11:45:31;;;;;;;6.57;3.97;;;22.40;45.10;;;;;;5086877;28;20078;-71
2021/04/23 11:48:10;;;;;;;8.27;5.82;;;22.60;45.30;;;;;;5083662;28;20115;-71
2021/04/23 11:50:39;;;;;;;10.13;4.20;;;23.10;45.40;;;;;;5080869;28;20062;-70
2021/04/23 11:53:08;;;;;;;9.15;3.45;;;23.20;42.60;;;;;;5087964;28;20031;-70
2021/04/23 11:55:36;;;;;;;9.80;3.83;;;23.40;44.50;;;;;;5087250;28;20178;-69
2021/04/23 11:58:14;;;;;;;8.13;4.70;;;23.70;43.20;;;;;;5088762;28;20059;-71
2021/04/23 12:00:41;;;;;;;6.65;4.05;;;23.80;42.60;;;;;;5089122;28;20032;-70
2021/04/23 12:03:12;;;;;;;8.05;3.70;;;23.80;44.20;;;;;;5089593;28;20051;-71
2021/04/23 12:05:41;;;;;;;11.05;4.65;;;23.70;42.30;;;;;;5091300;28;20132;-71
2021/04/23 12:08:16;;;;;;;6.22;3.85;;;23.80;40.40;;;;;;5068293;28;20032;-71
2021/04/23 12:10:51;;;;;;;10.73;5.03;;;23.80;42.00;;;;;;5068316;28;20402;-71
2021/04/23 12:13:26;;;;;;;14.95;9.27;;;24.30;41.70;;;;;;5052393;28;20132;-72
2021/04/23 12:15:58;;;;;;;7.70;4.57;;;24.30;40.50;;;;;;5068245;28;20583;-70
2021/04/23 12:18:25;;;;;;;5.90;4.57;;;24.10;40.90;;;;;;5052085;28;20032;-71
2021/04/23 12:20:53;;;;;;;6.28;3.95;;;24.10;40.90;;;;;;5068501;28;20313;-71
2021/04/23 12:23:31;;;;;;;6.15;3.75;;;24.00;39.90;;;;;;5052592;28;20421;-71
2021/04/23 12:26:01;;;;;;;9.93;4.47;;;23.30;39.90;;;;;;5036081;28;20397;-70
2021/04/23 12:28:44;;;;;;;7.97;5.45;;;23.70;39.50;;;;;;5069780;28;20119;-71
2021/04/23 12:31:24;;;;;;;10.32;4.93;;;24.00;40.30;;;;;;5053361;28;20059;-71
2021/04/23 12:33:53;;;;;;;7.38;3.80;;;24.30;39.20;;;;;;5052119;28;20033;-71
2021/04/23 12:36:29;;;;;;;4.72;3.33;;;24.50;39.60;;;;;;5069381;28;20044;-72
2021/04/23 12:39:28;;;;;;;6.57;4.15;;;24.20;37.90;;;;;;5068784;28;20044;-71
2021/04/23 12:41:58;;;;;;;6.22;3.35;;;24.20;39.80;;;;;;5016762;28;20038;-71
2021/04/23 12:44:27;;;;;;;7.30;3.15;;;24.30;38.40;;;;;;5069793;28;20071;-72
2021/04/23 12:46:57;;;;;;;6.72;3.20;;;24.40;40.90;;;;;;5090786;28;20028;-71
2021/04/23 12:49:22;;;;;;;6.63;3.05;;;24.60;38.50;;;;;;5093337;28;20028;-72
2021/04/23 12:51:58;;;;;;;9.13;2.72;;;24.60;39.70;;;;;;5091246;28;20024;-71
2021/04/23 12:54:32;;;;;;;6.50;3.78;;;24.70;38.70;;;;;;5092404;28;20358;-71